createdAt,value
2018-03-29T00:00:14.932Z,15.10
2018-03-29T00:02:42.413Z,14.50
2018-03-29T00:05:10.650Z,13.77
2018-03-29T00:07:38.755Z,13.80
2018-03-29T00:10:07.029Z,13.03
2018-03-29T00:12:35.274Z,13.77
2018-03-29T00:15:02.916Z,12.97
2018-03-29T00:17:30.393Z,14.13
2018-03-29T00:19:58.206Z,13.43
2018-03-29T00:22:25.696Z,13.13
2018-03-29T00:24:53.323Z,13.83
2018-03-29T00:27:20.847Z,14.80
2018-03-29T00:29:49.268Z,14.27
2018-03-29T00:32:16.810Z,14.00
2018-03-29T00:47:44.560Z,16.30
2018-03-29T00:50:12.059Z,16.37
2018-03-29T00:52:39.572Z,17.13
2018-03-29T00:55:07.051Z,17.50
2018-03-29T00:57:35.488Z,19.47
2018-03-29T01:00:02.961Z,19.27
2018-03-29T01:02:30.562Z,19.57
2018-03-29T01:14:43.073Z,19.77
2018-03-29T01:17:13.445Z,22.03
2018-03-29T01:19:41.959Z,21.50
2018-03-29T01:22:10.205Z,20.43
2018-03-29T01:24:37.691Z,22.20
2018-03-29T01:27:05.915Z,22.13
2018-03-29T01:29:33.404Z,21.40
2018-03-29T01:32:05.351Z,22.07
2018-03-29T01:34:32.842Z,19.40
2018-03-29T01:37:01.392Z,20.93
2018-03-29T01:39:29.647Z,20.50
2018-03-29T01:41:57.117Z,20.70
2018-03-29T01:44:25.477Z,21.47
2018-03-29T01:46:53.659Z,20.53
2018-03-29T01:49:21.127Z,20.63
2018-03-29T01:51:49.127Z,22.47
2018-03-29T01:54:16.606Z,21.97
2018-03-29T01:56:44.712Z,21.63
2018-03-29T01:59:12.221Z,21.10
2018-03-29T02:01:41.310Z,21.80
2018-03-29T02:04:08.786Z,20.17
2018-03-29T02:06:37.085Z,20.70
2018-03-29T02:09:04.564Z,21.03
2018-03-29T02:11:33.805Z,21.23
2018-03-29T02:14:01.273Z,20.80
2018-03-29T02:16:29.086Z,20.37
2018-03-29T02:18:57.591Z,21.37
2018-03-29T02:21:25.094Z,19.03
2018-03-29T02:23:52.566Z,21.73
2018-03-29T02:26:20.907Z,21.43
2018-03-29T02:28:48.386Z,21.17
2018-03-29T02:31:15.871Z,21.73
2018-03-29T02:33:44.133Z,20.67
2018-03-29T02:36:12.706Z,19.83
2018-03-29T02:38:40.188Z,21.03
2018-03-29T02:41:08.459Z,18.30
2018-03-29T02:43:36.812Z,20.17
2018-03-29T02:46:06.503Z,20.13
2018-03-29T02:48:35.018Z,19.93
2018-03-29T02:51:03.273Z,18.53
2018-03-29T02:53:31.646Z,18.03
2018-03-29T02:56:02.343Z,19.70
2018-03-29T02:58:30.604Z,19.33
2018-03-29T03:00:58.899Z,18.70
2018-03-29T03:03:26.385Z,19.43
2018-03-29T03:05:53.848Z,19.77
2018-03-29T03:08:21.358Z,18.80
2018-03-29T03:10:49.757Z,19.10
2018-03-29T03:13:20.013Z,18.93
2018-03-29T03:15:49.525Z,19.50
2018-03-29T03:18:17.039Z,17.93
2018-03-29T03:20:45.326Z,18.50
2018-03-29T03:23:15.331Z,19.33
2018-03-29T03:25:43.175Z,18.73
2018-03-29T03:28:10.934Z,17.60
2018-03-29T03:30:38.438Z,19.07
2018-03-29T03:33:06.001Z,18.10
2018-03-29T03:35:34.493Z,19.03
2018-03-29T03:38:02.737Z,18.03
2018-03-29T03:40:36.966Z,17.00
2018-03-29T03:43:06.525Z,18.17
2018-03-29T03:45:33.999Z,17.20
2018-03-29T03:48:03.302Z,18.63
2018-03-29T03:50:31.869Z,18.30
2018-03-29T03:52:59.973Z,18.10
2018-03-29T03:55:27.463Z,19.10
2018-03-29T03:57:55.733Z,19.73
2018-03-29T04:00:24.649Z,19.83
2018-03-29T04:02:52.128Z,19.33
2018-03-29T04:05:20.703Z,19.73
2018-03-29T04:07:49.085Z,18.13
2018-03-29T04:10:16.584Z,17.17
2018-03-29T04:12:45.618Z,18.43
2018-03-29T04:15:16.559Z,18.27
2018-03-29T04:17:44.992Z,15.80
2018-03-29T04:20:13.214Z,16.27
2018-03-29T04:22:40.831Z,17.47
2018-03-29T04:25:12.680Z,15.97
2018-03-29T04:27:40.181Z,16.43
2018-03-29T04:30:08.674Z,16.63
2018-03-29T04:32:36.184Z,16.63
2018-03-29T04:35:04.431Z,16.67
2018-03-29T04:37:32.698Z,16.90
2018-03-29T04:40:02.557Z,16.17
2018-03-29T04:42:31.401Z,16.00
2018-03-29T04:44:58.963Z,15.60
2018-03-29T04:47:27.217Z,15.80
2018-03-29T04:49:54.863Z,16.13
2018-03-29T04:52:23.727Z,16.53
2018-03-29T04:54:54.993Z,16.30
2018-03-29T04:57:23.869Z,15.83
2018-03-29T04:59:51.781Z,16.83
2018-03-29T05:02:20.085Z,17.13
2018-03-29T05:04:48.352Z,17.07
2018-03-29T05:07:16.979Z,18.50
2018-03-29T05:09:44.465Z,17.73
2018-03-29T05:12:11.941Z,17.70
2018-03-29T05:14:40.959Z,17.23
2018-03-29T05:17:08.521Z,16.93
2018-03-29T05:19:36.582Z,17.83
2018-03-29T05:22:04.240Z,17.50
2018-03-29T05:24:31.840Z,18.37
2018-03-29T05:40:00.423Z,16.07
2018-03-29T05:42:29.579Z,18.47
2018-03-29T05:44:57.915Z,17.83
2018-03-29T05:47:25.467Z,18.43
2018-03-29T05:49:53.766Z,17.97
2018-03-29T05:52:23.200Z,18.90
2018-03-29T05:54:50.694Z,17.63
2018-03-29T05:57:18.548Z,18.53
2018-03-29T05:59:46.812Z,18.77
2018-03-29T06:02:15.259Z,19.43
2018-03-29T06:04:45.532Z,18.57
2018-03-29T06:07:13.055Z,21.03
2018-03-29T06:09:41.202Z,20.30
2018-03-29T06:12:09.995Z,20.40
2018-03-29T06:14:45.126Z,19.10
2018-03-29T06:17:18.619Z,19.40
2018-03-29T06:19:47.313Z,18.73
2018-03-29T06:22:15.684Z,21.43
2018-03-29T06:24:43.170Z,20.50
2018-03-29T06:27:10.666Z,21.43
2018-03-29T06:29:38.985Z,28.20
2018-03-29T06:32:06.518Z,19.43
2018-03-29T06:34:34.439Z,25.00
2018-03-29T06:37:02.778Z,21.37
2018-03-29T06:39:30.464Z,24.40
2018-03-29T06:41:58.998Z,23.60
2018-03-29T06:44:27.897Z,22.13
2018-03-29T06:46:55.627Z,22.77
2018-03-29T06:49:23.222Z,22.30
2018-03-29T06:51:51.566Z,24.60
2018-03-29T06:54:21.520Z,24.67
2018-03-29T06:56:50.119Z,23.63
2018-03-29T06:59:20.612Z,22.50
2018-03-29T07:01:48.567Z,26.40
2018-03-29T07:04:16.895Z,25.13
2018-03-29T07:06:44.932Z,24.43
2018-03-29T07:09:12.503Z,23.57
2018-03-29T07:11:40.197Z,23.67
2018-03-29T07:14:07.666Z,23.27
2018-03-29T07:16:36.322Z,23.63
2018-03-29T07:19:05.250Z,21.70
2018-03-29T07:21:35.102Z,22.50
2018-03-29T07:24:02.630Z,23.27
2018-03-29T07:26:30.266Z,22.07
2018-03-29T07:28:58.288Z,21.90
2018-03-29T07:31:26.952Z,21.07
2018-03-29T07:33:56.567Z,21.47
2018-03-29T07:36:24.864Z,21.13
2018-03-29T07:38:53.165Z,21.00
2018-03-29T07:41:23.929Z,21.33
2018-03-29T07:43:51.521Z,20.23
2018-03-29T07:46:19.103Z,18.97
2018-03-29T07:48:47.546Z,19.53
2018-03-29T07:51:15.051Z,17.30
2018-03-29T07:53:45.958Z,16.97
2018-03-29T07:56:13.461Z,16.77
2018-03-29T07:58:42.263Z,16.50
2018-03-29T08:01:09.795Z,16.60
2018-03-29T08:03:37.256Z,15.47
2018-03-29T08:06:05.726Z,15.77
2018-03-29T08:08:33.204Z,15.07
2018-03-29T08:11:04.505Z,14.87
2018-03-29T08:13:32.593Z,14.60
2018-03-29T08:16:00.079Z,14.73
2018-03-29T08:18:29.740Z,16.13
2018-03-29T08:20:57.310Z,14.27
2018-03-29T08:23:24.817Z,15.67
2018-03-29T08:25:52.354Z,16.77
2018-03-29T08:28:21.166Z,15.83
2018-03-29T08:30:48.941Z,16.13
2018-03-29T08:33:17.524Z,15.80
2018-03-29T08:35:45.038Z,16.23
2018-03-29T08:38:12.664Z,16.00
2018-03-29T08:40:40.167Z,15.17
2018-03-29T08:43:09.109Z,13.80
2018-03-29T08:45:36.578Z,14.40
2018-03-29T08:48:04.246Z,14.57
2018-03-29T09:03:33.921Z,15.93
2018-03-29T09:06:01.409Z,14.73
2018-03-29T09:08:30.802Z,16.13
2018-03-29T09:10:59.118Z,15.60
2018-03-29T09:13:26.607Z,16.40
2018-03-29T09:15:56.094Z,14.67
2018-03-29T09:18:25.438Z,14.67
2018-03-29T09:20:53.809Z,15.20
2018-03-29T09:23:22.650Z,14.63
2018-03-29T09:25:51.416Z,14.40
2018-03-29T09:28:18.952Z,12.97
2018-03-29T09:30:47.217Z,12.93
2018-03-29T09:33:16.352Z,13.50
2018-03-29T09:35:44.022Z,12.97
2018-03-29T09:38:11.507Z,11.93
2018-03-29T09:40:39.022Z,13.00
2018-03-29T09:43:07.506Z,12.10
2018-03-29T09:45:36.038Z,12.67
2018-03-29T09:48:04.122Z,12.57
2018-03-29T09:50:32.839Z,12.03
2018-03-29T09:53:01.281Z,10.90
2018-03-29T09:55:30.398Z,10.77
2018-03-29T09:57:59.632Z,9.73
2018-03-29T10:00:32.884Z,10.10
2018-03-29T10:03:09.168Z,9.93
2018-03-29T10:05:38.295Z,8.83
2018-03-29T10:08:06.025Z,8.70
2018-03-29T10:10:33.543Z,8.87
2018-03-29T10:13:01.812Z,8.43
2018-03-29T10:15:31.760Z,7.87
2018-03-29T10:17:59.239Z,8.10
2018-03-29T10:20:27.493Z,7.60
2018-03-29T10:22:54.991Z,7.40
2018-03-29T10:25:23.637Z,8.17
2018-03-29T10:27:51.183Z,7.63
2018-03-29T10:30:18.664Z,7.73
2018-03-29T10:32:46.308Z,7.13
2018-03-29T10:35:14.018Z,6.90
2018-03-29T10:37:42.272Z,6.70
2018-03-29T10:40:10.168Z,6.10
2018-03-29T10:42:39.404Z,5.90
2018-03-29T10:45:06.885Z,5.47
2018-03-29T10:47:35.059Z,6.07
2018-03-29T10:50:03.435Z,5.60
2018-03-29T10:52:30.919Z,5.60
2018-03-29T10:54:58.457Z,6.43
2018-03-29T10:57:26.764Z,5.57
2018-03-29T10:59:54.831Z,6.13
2018-03-29T11:02:23.343Z,5.30
2018-03-29T11:04:51.303Z,5.97
2018-03-29T11:07:19.172Z,5.60
2018-03-29T11:09:47.452Z,5.97
2018-03-29T11:12:14.932Z,6.73
2018-03-29T11:14:43.560Z,6.10
2018-03-29T11:17:13.396Z,6.13
2018-03-29T11:19:41.791Z,5.93
2018-03-29T11:22:09.986Z,5.73
2018-03-29T11:24:37.766Z,5.70
2018-03-29T11:27:06.376Z,5.90
2018-03-29T11:29:35.529Z,6.17
2018-03-29T11:32:04.848Z,5.57
2018-03-29T11:34:33.406Z,4.83
2018-03-29T11:37:01.337Z,3.43
2018-03-29T11:39:29.037Z,2.60
2018-03-29T11:41:56.511Z,2.67
2018-03-29T11:44:24.770Z,2.23
2018-03-29T11:46:52.253Z,1.47
2018-03-29T11:49:20.524Z,1.60
2018-03-29T11:51:48.799Z,1.80
2018-03-29T11:54:17.099Z,2.20
2018-03-29T11:56:45.483Z,1.57
2018-03-29T11:59:13.256Z,1.53
2018-03-29T12:01:40.786Z,1.40
2018-03-29T12:04:09.056Z,1.57
2018-03-29T12:06:37.350Z,2.23
2018-03-29T12:09:05.012Z,1.67
2018-03-29T12:11:32.553Z,1.73
2018-03-29T12:14:00.831Z,1.83
2018-03-29T12:16:28.989Z,1.73
2018-03-29T12:18:57.256Z,1.90
2018-03-29T12:21:25.478Z,1.83
2018-03-29T12:23:53.006Z,1.67
2018-03-29T12:26:20.546Z,2.17
2018-03-29T12:28:48.795Z,2.20
2018-03-29T12:31:16.313Z,2.00
2018-03-29T12:33:44.551Z,2.00
2018-03-29T12:36:12.843Z,2.23
2018-03-29T12:38:41.989Z,2.37
2018-03-29T12:41:10.359Z,2.30
2018-03-29T12:43:39.740Z,2.13
2018-03-29T12:46:08.827Z,2.00
2018-03-29T12:51:10.850Z,2.30
2018-03-29T12:53:38.355Z,2.40
2018-03-29T12:56:06.574Z,2.77
2018-03-29T12:58:34.061Z,2.57
2018-03-29T13:01:03.944Z,3.37
2018-03-29T13:03:35.218Z,1.93
2018-03-29T13:06:03.675Z,1.53
2018-03-29T13:08:31.737Z,1.70
2018-03-29T13:10:59.210Z,1.90
2018-03-29T13:13:26.988Z,1.70
2018-03-29T13:15:56.067Z,1.80
2018-03-29T13:18:23.566Z,2.17
2018-03-29T13:20:51.972Z,2.20
2018-03-29T13:23:20.402Z,2.20
2018-03-29T13:25:48.792Z,2.07
2018-03-29T13:28:16.341Z,1.80
2018-03-29T13:30:43.880Z,2.60
2018-03-29T13:33:12.228Z,1.70
2018-03-29T13:35:39.886Z,1.67
2018-03-29T13:38:08.675Z,2.17
2018-03-29T13:40:37.906Z,2.83
2018-03-29T13:43:05.519Z,2.70
2018-03-29T13:45:33.030Z,2.37
2018-03-29T13:48:01.382Z,2.70
2018-03-29T13:50:29.478Z,2.40
2018-03-29T13:52:56.967Z,2.33
2018-03-29T13:55:24.465Z,3.33
2018-03-29T13:57:52.738Z,2.53
2018-03-29T14:00:20.966Z,3.47
2018-03-29T14:02:49.323Z,4.20
2018-03-29T14:05:17.087Z,3.33
2018-03-29T14:07:45.372Z,3.73
2018-03-29T14:10:12.848Z,3.73
2018-03-29T14:12:40.596Z,2.97
2018-03-29T14:15:09.953Z,2.30
2018-03-29T14:17:39.308Z,2.20
2018-03-29T14:20:07.242Z,2.33
2018-03-29T14:22:35.359Z,2.60
2018-03-29T14:25:02.888Z,2.90
2018-03-29T14:27:31.114Z,3.40
2018-03-29T14:30:00.761Z,3.90
2018-03-29T14:32:28.337Z,4.00
2018-03-29T14:34:56.324Z,4.07
2018-03-29T14:37:25.890Z,4.00
2018-03-29T14:39:54.197Z,4.03
2018-03-29T14:42:22.950Z,3.60
2018-03-29T14:44:51.390Z,3.60
2018-03-29T14:47:19.347Z,3.57
2018-03-29T14:49:48.098Z,3.83
2018-03-29T14:52:15.589Z,2.80
2018-03-29T14:54:44.750Z,2.50
2018-03-29T14:57:12.222Z,2.67
2018-03-29T14:59:39.810Z,2.90
2018-03-29T15:02:07.352Z,2.93
2018-03-29T15:04:35.404Z,2.20
2018-03-29T15:07:02.890Z,2.20
2018-03-29T15:09:31.200Z,2.67
2018-03-29T15:11:58.778Z,2.57
2018-03-29T15:14:26.908Z,2.70
2018-03-29T15:16:54.422Z,2.50
2018-03-29T15:19:22.034Z,2.93
2018-03-29T15:21:49.571Z,3.80
2018-03-29T15:24:18.864Z,3.03
2018-03-29T15:26:46.353Z,3.80
2018-03-29T15:29:14.722Z,3.40
2018-03-29T15:31:42.214Z,3.40
2018-03-29T15:34:11.115Z,3.70
2018-03-29T15:36:39.153Z,3.13
2018-03-29T15:39:06.639Z,3.20
2018-03-29T15:41:34.623Z,3.47
2018-03-29T15:44:02.200Z,3.73
2018-03-29T15:46:30.460Z,3.17
2018-03-29T15:48:59.326Z,5.00
2018-03-29T15:51:26.847Z,3.80
2018-03-29T15:53:54.398Z,3.37
2018-03-29T15:56:22.538Z,4.10
2018-03-29T15:58:50.092Z,3.43
2018-03-29T16:01:18.432Z,2.80
2018-03-29T16:03:45.905Z,2.67
2018-03-29T16:06:14.057Z,2.37
2018-03-29T16:08:41.522Z,2.83
2018-03-29T16:11:09.533Z,2.30
2018-03-29T16:13:38.350Z,17.97
2018-03-29T16:16:06.645Z,2.90
2018-03-29T16:18:34.151Z,2.90
2018-03-29T16:21:03.122Z,2.30
2018-03-29T16:23:30.618Z,2.10
2018-03-29T16:25:58.679Z,2.40
2018-03-29T16:28:26.947Z,2.10
2018-03-29T16:30:55.571Z,2.20
2018-03-29T16:33:23.678Z,2.63
2018-03-29T16:35:51.154Z,1.90
2018-03-29T16:38:19.789Z,2.40
2018-03-29T16:40:48.331Z,1.80
2018-03-29T16:43:17.370Z,1.90
2018-03-29T16:45:45.787Z,1.90
2018-03-29T16:48:13.440Z,2.13
2018-03-29T16:50:41.001Z,1.80
2018-03-29T16:53:09.244Z,1.60
2018-03-29T16:55:36.720Z,1.70
2018-03-29T16:58:04.193Z,2.13
2018-03-29T17:00:32.443Z,2.23
2018-03-29T17:02:59.966Z,2.23
2018-03-29T17:05:28.555Z,2.23
2018-03-29T17:07:57.225Z,2.17
2018-03-29T17:10:24.713Z,2.23
2018-03-29T17:12:52.182Z,2.10
2018-03-29T17:15:21.150Z,2.00
2018-03-29T17:17:48.628Z,1.77
2018-03-29T17:20:16.134Z,1.80
2018-03-29T17:22:43.637Z,1.83
2018-03-29T17:25:11.117Z,1.83
2018-03-29T17:27:39.411Z,1.90
2018-03-29T17:30:06.893Z,1.63
2018-03-29T17:32:34.365Z,2.00
2018-03-29T17:35:01.897Z,1.97
2018-03-29T17:37:29.784Z,2.30
2018-03-29T17:39:57.260Z,1.90
2018-03-29T17:42:26.624Z,2.13
2018-03-29T17:44:55.425Z,1.97
2018-03-29T17:47:22.906Z,1.60
2018-03-29T17:49:50.379Z,2.37
2018-03-29T17:52:19.694Z,2.90
2018-03-29T17:54:48.357Z,2.90
2018-03-29T17:57:17.498Z,2.93
2018-03-29T17:59:45.096Z,3.97
2018-03-29T18:02:13.287Z,3.60
2018-03-29T18:04:41.802Z,3.60
2018-03-29T18:07:09.864Z,10.10
2018-03-29T18:09:37.365Z,5.33
2018-03-29T18:14:38.590Z,4.60
2018-03-29T18:17:07.574Z,17.27
2018-03-29T18:19:35.404Z,4.40
2018-03-29T18:22:03.646Z,2.37
2018-03-29T18:24:31.177Z,2.73
2018-03-29T18:26:58.985Z,3.23
2018-03-29T18:29:26.607Z,3.63
2018-03-29T18:31:56.816Z,4.77
2018-03-29T18:34:24.383Z,13.87
2018-03-29T18:36:51.856Z,24.30
2018-03-29T18:39:19.344Z,25.33
2018-03-29T18:41:46.927Z,9.83
2018-03-29T18:44:14.446Z,5.47
2018-03-29T18:46:41.926Z,4.20
2018-03-29T18:49:10.196Z,4.50
2018-03-29T18:51:38.446Z,3.47
2018-03-29T18:54:06.790Z,3.00
2018-03-29T18:56:34.269Z,3.47
2018-03-29T18:59:01.767Z,3.20
2018-03-29T19:01:30.011Z,3.53
2018-03-29T19:03:57.538Z,3.73
2018-03-29T19:06:27.390Z,3.10
2018-03-29T19:08:55.799Z,3.20
2018-03-29T19:11:23.282Z,4.67
2018-03-29T19:13:50.805Z,4.27
2018-03-29T19:16:18.300Z,4.50
2018-03-29T19:18:47.952Z,5.07
2018-03-29T19:21:16.503Z,4.27
2018-03-29T19:23:43.971Z,4.33
2018-03-29T19:26:11.588Z,4.77
2018-03-29T19:28:39.257Z,4.63
2018-03-29T19:31:06.801Z,4.97
2018-03-29T19:33:34.463Z,5.37
2018-03-29T20:06:55.286Z,4.37
2018-03-29T20:09:22.778Z,5.87
2018-03-29T20:11:50.425Z,5.47
2018-03-29T20:14:18.692Z,4.73
2018-03-29T20:16:46.995Z,5.83
2018-03-29T20:19:14.463Z,5.57
2018-03-29T20:21:41.919Z,5.77
2018-03-29T20:24:09.417Z,6.40
2018-03-29T20:26:36.893Z,6.60
2018-03-29T20:29:05.173Z,5.93
2018-03-29T20:31:33.415Z,6.47
2018-03-29T20:34:00.897Z,5.90
2018-03-29T20:36:29.183Z,6.03
2018-03-29T20:38:57.438Z,5.93
2018-03-29T20:41:24.940Z,5.70
2018-03-29T20:43:52.573Z,5.97
2018-03-29T20:46:20.817Z,5.80
2018-03-29T20:48:49.061Z,6.70
2018-03-29T20:51:16.680Z,6.03
2018-03-29T20:53:44.953Z,5.93
2018-03-29T20:56:13.191Z,6.17
2018-03-29T20:58:40.678Z,7.37
2018-03-29T21:01:08.994Z,6.80
2018-03-29T21:03:36.477Z,6.60
2018-03-29T21:06:04.762Z,6.63
2018-03-29T21:08:32.243Z,6.37
2018-03-29T21:11:00.555Z,6.80
2018-03-29T21:13:28.087Z,5.40
2018-03-29T21:15:55.605Z,5.07
2018-03-29T21:18:23.223Z,5.87
2018-03-29T21:20:50.827Z,5.70
2018-03-29T21:23:18.423Z,6.00
2018-03-29T21:25:46.766Z,6.00
2018-03-29T21:28:14.240Z,5.27
2018-03-29T21:30:42.516Z,4.70
2018-03-29T21:33:10.931Z,4.90
2018-03-29T21:35:38.445Z,4.30
2018-03-29T21:38:06.824Z,4.67
2018-03-29T21:40:35.169Z,4.30
2018-03-29T21:43:03.000Z,4.07
2018-03-29T21:45:30.512Z,4.67
2018-03-29T21:47:58.122Z,4.50
2018-03-29T21:50:25.719Z,3.90
2018-03-29T21:52:53.218Z,4.37
2018-03-29T21:55:20.713Z,5.33
2018-03-29T21:57:48.282Z,4.33
2018-03-29T22:00:15.856Z,4.63
2018-03-29T22:02:43.623Z,5.37
2018-03-29T22:05:11.425Z,4.73
2018-03-29T22:07:38.986Z,4.53
2018-03-29T22:10:06.494Z,4.37
2018-03-29T22:12:34.971Z,4.37
2018-03-29T22:15:02.526Z,4.50
2018-03-29T22:17:30.027Z,4.40
2018-03-29T22:19:57.635Z,3.83
2018-03-29T22:22:25.226Z,4.43
2018-03-29T22:24:53.580Z,3.93
2018-03-29T22:27:21.086Z,3.90
2018-03-29T22:29:48.692Z,3.90
2018-03-29T22:32:16.261Z,3.47
2018-03-29T22:34:43.969Z,4.13
2018-03-29T22:37:11.574Z,3.63
2018-03-29T22:39:39.846Z,4.20
2018-03-29T22:42:07.340Z,4.53
2018-03-29T22:44:35.045Z,3.83
2018-03-29T22:47:02.668Z,3.93
2018-03-29T22:49:30.207Z,3.60
2018-03-29T22:51:57.715Z,3.50
2018-03-29T22:54:25.200Z,3.63
2018-03-29T22:56:52.682Z,3.57
2018-03-29T22:59:20.182Z,3.63
2018-03-29T23:01:47.714Z,3.63
2018-03-29T23:04:15.298Z,3.43
2018-03-29T23:06:43.675Z,3.53
2018-03-29T23:09:11.146Z,3.73
2018-03-29T23:11:38.638Z,3.90
2018-03-29T23:14:06.242Z,3.60
2018-03-29T23:16:33.878Z,3.57
2018-03-29T23:19:01.619Z,3.60
2018-03-29T23:21:30.219Z,3.47
2018-03-29T23:23:57.771Z,3.30
2018-03-29T23:26:25.323Z,3.87
2018-03-29T23:28:52.856Z,4.00
2018-03-29T23:31:21.103Z,3.73
2018-03-29T23:33:48.727Z,3.57
2018-03-29T23:36:16.444Z,3.30
2018-03-29T23:38:44.052Z,3.43
2018-03-29T23:41:11.603Z,3.47
2018-03-29T23:43:39.265Z,3.43
2018-03-29T23:46:06.814Z,3.27
2018-03-29T23:48:34.640Z,3.63
2018-03-29T23:51:02.983Z,3.20
2018-03-29T23:53:30.563Z,3.40
2018-03-29T23:55:58.352Z,3.43
2018-03-29T23:58:26.765Z,2.97
